createdAt,value
2023-04-05T00:00:49.281Z,95503.13
2023-04-05T00:03:18.634Z,95496.25
2023-04-05T00:05:46.431Z,95498.03
2023-04-05T00:08:24.980Z,95495.44
2023-04-05T00:10:56.402Z,95499.00
2023-04-05T00:13:35.818Z,95493.78
2023-04-05T00:16:25.140Z,95492.97
2023-04-05T00:30:14.861Z,95480.88
2023-04-05T00:39:43.066Z,95480.34
2023-04-05T00:45:49.206Z,95476.59
2023-04-05T00:56:04.337Z,95465.47
2023-04-05T00:59:00.374Z,95471.53
2023-04-05T01:05:08.625Z,95463.69
2023-04-05T01:19:06.591Z,95442.00
2023-04-05T01:26:25.268Z,95437.59
2023-04-05T01:29:18.654Z,95438.59
2023-04-05T01:32:11.175Z,95432.41
2023-04-05T01:38:14.482Z,95424.56
2023-04-05T01:52:20.911Z,95410.84
2023-04-05T01:58:44.869Z,95413.44
2023-04-05T02:05:43.872Z,95403.16
2023-04-05T02:16:16.006Z,95406.72
2023-04-05T02:19:37.097Z,95403.16
2023-04-05T02:22:46.915Z,95405.88
2023-04-05T02:25:24.626Z,95407.69
2023-04-05T02:31:40.645Z,95398.06
2023-04-05T02:40:43.578Z,95392.84
2023-04-05T02:47:03.119Z,95378.84
2023-04-05T03:06:25.146Z,95375.41
2023-04-05T03:09:01.608Z,95371.03
2023-04-05T03:11:51.765Z,95382.41
2023-04-05T03:14:51.585Z,95378.84
2023-04-05T03:18:13.001Z,95378.03
2023-04-05T03:24:48.258Z,95367.75
2023-04-05T03:28:13.446Z,95373.78
2023-04-05T03:34:19.024Z,95378.16
2023-04-05T03:37:24.585Z,95372.13
2023-04-05T03:40:41.864Z,95370.50
2023-04-05T03:50:43.028Z,95369.66
2023-04-05T03:53:27.118Z,95361.00
2023-04-05T03:56:10.325Z,95365.41
2023-04-05T03:58:55.213Z,95353.34
2023-04-05T04:01:35.812Z,95361.16
2023-04-05T04:04:11.391Z,95371.44
2023-04-05T04:09:49.990Z,95356.63
2023-04-05T04:12:35.816Z,95354.69
2023-04-05T04:19:04.124Z,95350.97
2023-04-05T04:21:43.932Z,95351.81
2023-04-05T04:24:22.385Z,95356.03
2023-04-05T04:41:15.146Z,95353.00
2023-04-05T04:58:51.749Z,95358.09
2023-04-05T05:02:08.189Z,95353.00
2023-04-05T05:04:37.203Z,95353.00
2023-04-05T05:07:04.966Z,95358.22
2023-04-05T05:09:32.598Z,95363.44
2023-04-05T05:12:01.711Z,95363.44
2023-04-05T05:14:29.366Z,95357.41
2023-04-05T05:16:59.137Z,95353.97
2023-04-05T05:19:26.876Z,95353.84
2023-04-05T05:21:55.984Z,95359.06
2023-04-05T05:24:24.463Z,95350.41
2023-04-05T05:26:52.155Z,95358.09
2023-04-05T05:29:20.382Z,95362.50
2023-04-05T05:31:47.988Z,95356.47
2023-04-05T05:34:15.884Z,95355.63
2023-04-05T05:36:43.481Z,95358.22
2023-04-05T05:39:12.428Z,95356.47
2023-04-05T05:41:40.052Z,95367.72
2023-04-05T05:44:07.899Z,95369.50
2023-04-05T05:46:35.741Z,95364.28
2023-04-05T05:49:03.442Z,95365.91
2023-04-05T05:51:32.315Z,95369.50
2023-04-05T05:53:59.963Z,95379.78
2023-04-05T05:56:29.209Z,95382.41
2023-04-05T05:58:56.993Z,95380.63
2023-04-05T06:01:28.144Z,95378.84
2023-04-05T06:03:56.395Z,95373.63
2023-04-05T06:06:24.226Z,95380.47
2023-04-05T06:08:57.331Z,95380.63
2023-04-05T06:11:27.130Z,95384.06
2023-04-05T06:13:57.822Z,95387.47
2023-04-05T06:16:27.637Z,95386.00
2023-04-05T06:18:57.165Z,95391.88
2023-04-05T06:21:26.676Z,95391.06
2023-04-05T06:23:55.975Z,95390.22
2023-04-05T06:26:27.849Z,95390.22
2023-04-05T06:28:58.989Z,95389.41
2023-04-05T06:31:34.859Z,95385.84
2023-04-05T06:34:04.102Z,95392.00
2023-04-05T06:36:34.600Z,95389.41
2023-04-05T06:39:08.701Z,95391.22
2023-04-05T06:41:37.849Z,95396.28
2023-04-05T06:44:08.541Z,95381.56
2023-04-05T06:46:48.012Z,95394.63
2023-04-05T06:49:17.326Z,95385.16
2023-04-05T06:51:46.600Z,95388.59
2023-04-05T06:54:15.998Z,95395.59
2023-04-05T06:56:45.463Z,95386.94
2023-04-05T06:59:16.171Z,95390.38
2023-04-05T07:01:46.959Z,95387.09
2023-04-05T07:04:16.767Z,95376.66
2023-04-05T07:06:46.318Z,95384.31
2023-04-05T07:09:15.486Z,95381.88
2023-04-05T07:11:44.792Z,95378.28
2023-04-05T07:14:15.683Z,95373.06
2023-04-05T07:16:45.417Z,95379.94
2023-04-05T07:19:15.710Z,95372.22
2023-04-05T07:21:44.828Z,95375.66
2023-04-05T07:24:14.164Z,95375.56
2023-04-05T07:26:43.564Z,95378.28
2023-04-05T07:29:13.357Z,95378.16
2023-04-05T07:31:44.512Z,95380.06
2023-04-05T07:34:14.947Z,95377.63
2023-04-05T07:36:44.452Z,95383.66
2023-04-05T07:39:14.350Z,95380.22
2023-04-05T07:41:43.636Z,95384.63
2023-04-05T07:44:13.689Z,95383.78
2023-04-05T07:46:48.343Z,95383.66
2023-04-05T07:49:18.504Z,95385.59
2023-04-05T07:51:48.463Z,95388.06
2023-04-05T07:54:17.831Z,95392.38
2023-04-05T07:56:49.441Z,95394.97
2023-04-05T07:59:18.895Z,95392.44
2023-04-05T08:01:50.749Z,95399.09
2023-04-05T08:04:21.338Z,95396.91
2023-04-05T08:06:50.666Z,95409.88
2023-04-05T08:09:24.540Z,95402.72
2023-04-05T08:27:00.190Z,95403.84
2023-04-05T08:29:43.595Z,95408.81
2023-04-05T08:32:19.584Z,95399.88
2023-04-05T08:35:01.230Z,95405.25
2023-04-05T08:49:44.040Z,95406.91
2023-04-05T08:52:51.805Z,95394.28
2023-04-05T09:59:41.866Z,95388.59
2023-04-05T10:05:59.972Z,95393.56
2023-04-05T10:09:14.145Z,95391.63
2023-04-05T10:35:53.709Z,95378.50
2023-04-05T11:31:50.858Z,95347.72
2023-04-05T11:42:36.706Z,95337.00
2023-04-05T12:00:02.426Z,95308.72
2023-04-05T12:02:48.633Z,95307.91
2023-04-05T12:06:24.782Z,95323.41
2023-04-05T12:09:13.778Z,95318.34
2023-04-05T12:11:41.412Z,95321.78
2023-04-05T12:14:09.041Z,95315.72
2023-04-05T12:16:36.696Z,95307.75
2023-04-05T12:19:04.360Z,95305.13
2023-04-05T12:21:32.531Z,95312.13
2023-04-05T12:24:00.215Z,95308.72
2023-04-05T12:26:34.133Z,95305.28
2023-04-05T12:29:05.333Z,95305.28
2023-04-05T12:31:40.122Z,95299.25
2023-04-05T12:34:08.536Z,95295.81
2023-04-05T12:36:36.194Z,95299.25
2023-04-05T12:39:08.433Z,95301.69
2023-04-05T12:41:38.350Z,95299.09
2023-04-05T12:44:13.039Z,95294.84
2023-04-05T12:46:41.616Z,95296.50
2023-04-05T12:49:12.532Z,95293.09
2023-04-05T12:51:43.825Z,95292.09
2023-04-05T12:54:13.631Z,95291.28
2023-04-05T12:56:43.534Z,95291.28
2023-04-05T12:59:11.453Z,95290.31
2023-04-05T13:01:39.484Z,95284.28
2023-04-05T13:04:15.517Z,95285.94
2023-04-05T13:06:44.604Z,95288.53
2023-04-05T13:09:12.181Z,95283.31
2023-04-05T13:11:39.843Z,95278.09
2023-04-05T13:14:08.910Z,95270.28
2023-04-05T13:16:36.654Z,95277.13
2023-04-05T13:19:04.400Z,95273.00
2023-04-05T13:21:32.544Z,95265.06
2023-04-05T13:24:00.669Z,95278.09
2023-04-05T13:26:28.397Z,95266.84
2023-04-05T13:28:56.273Z,95259.84
2023-04-05T13:31:25.297Z,95261.63
2023-04-05T13:33:53.107Z,95257.25
2023-04-05T13:36:20.727Z,95264.09
2023-04-05T13:38:48.329Z,95258.06
2023-04-05T13:41:16.244Z,95264.91
2023-04-05T13:43:43.916Z,95254.47
2023-04-05T13:46:11.629Z,95254.47
2023-04-05T13:48:40.734Z,95257.09
2023-04-05T13:51:08.581Z,95249.25
2023-04-05T13:53:36.400Z,95251.88
2023-04-05T13:56:04.184Z,95251.88
2023-04-05T13:58:31.775Z,95246.66
2023-04-05T14:00:59.429Z,95250.75
2023-04-05T14:03:27.210Z,95236.88
2023-04-05T14:05:56.201Z,95242.09
2023-04-05T14:08:23.823Z,95239.50
2023-04-05T14:10:51.502Z,95240.34
2023-04-05T14:13:19.199Z,95241.16
2023-04-05T14:15:46.966Z,95238.66
2023-04-05T14:18:14.711Z,95235.13
2023-04-05T14:20:42.732Z,95241.16
2023-04-05T14:23:12.080Z,95231.56
2023-04-05T14:25:40.118Z,95233.19
2023-04-05T14:28:08.056Z,95233.19
2023-04-05T14:30:36.487Z,95234.00
2023-04-05T14:33:04.307Z,95221.78
2023-04-05T14:35:32.093Z,95227.81
2023-04-05T14:37:59.795Z,95220.81
2023-04-05T14:40:28.881Z,95219.97
2023-04-05T14:42:56.760Z,95220.81
2023-04-05T14:45:27.060Z,95223.41
2023-04-05T14:47:55.222Z,95232.91
2023-04-05T14:50:23.056Z,95226.69
2023-04-05T14:52:50.892Z,95219.84
2023-04-05T14:55:18.678Z,95219.03
2023-04-05T14:57:47.814Z,95219.69
2023-04-05T15:00:16.493Z,95221.50
2023-04-05T15:02:45.860Z,95231.09
2023-04-05T15:05:13.831Z,95219.69
2023-04-05T15:07:41.605Z,95215.44
2023-04-05T15:10:09.905Z,95219.84
2023-04-05T15:12:37.877Z,95219.03
2023-04-05T15:15:08.236Z,95221.63
2023-04-05T15:17:36.013Z,95218.03
2023-04-05T15:20:03.895Z,95224.91
2023-04-05T15:22:31.661Z,95217.94
2023-04-05T15:24:59.863Z,95223.25
2023-04-05T15:27:27.700Z,95223.16
2023-04-05T15:29:55.453Z,95222.16
2023-04-05T15:32:24.696Z,95233.56
2023-04-05T15:34:52.471Z,95217.94
2023-04-05T15:37:20.287Z,95223.16
2023-04-05T15:39:47.987Z,95221.38
2023-04-05T15:42:16.295Z,95214.50
2023-04-05T15:44:45.946Z,95221.38
2023-04-05T15:47:13.666Z,95233.44
2023-04-05T15:49:43.442Z,95223.16
2023-04-05T15:52:11.715Z,95221.38
2023-04-05T15:54:39.616Z,95229.97
2023-04-05T15:57:09.860Z,95229.97
2023-04-05T15:59:37.756Z,95224.78
2023-04-05T16:02:05.807Z,95227.25
2023-04-05T16:04:33.649Z,95223.81
2023-04-05T16:07:02.765Z,95217.63
2023-04-05T16:09:30.472Z,95225.44
2023-04-05T16:11:59.225Z,95221.06
2023-04-05T16:14:30.076Z,95226.28
2023-04-05T16:16:57.998Z,95227.09
2023-04-05T16:19:26.654Z,95225.31
2023-04-05T16:21:54.512Z,95222.72
2023-04-05T16:24:23.689Z,95221.72
2023-04-05T16:26:51.622Z,95221.72
2023-04-05T16:29:19.327Z,95221.72
2023-04-05T16:31:47.944Z,95220.91
2023-04-05T16:34:16.051Z,95226.94
2023-04-05T16:36:43.875Z,95226.81
2023-04-05T16:39:11.596Z,95228.59
2023-04-05T16:41:40.844Z,95225.16
2023-04-05T16:44:08.634Z,95222.56
2023-04-05T16:46:36.370Z,95225.16
2023-04-05T16:49:04.289Z,95228.59
2023-04-05T16:51:32.373Z,95224.34
2023-04-05T16:54:00.743Z,95225.16
2023-04-05T16:56:28.608Z,95233.81
2023-04-05T16:58:58.330Z,95239.03
2023-04-05T17:01:26.486Z,95230.22
2023-04-05T17:03:54.351Z,95234.66
2023-04-05T17:06:22.176Z,95237.09
2023-04-05T17:08:49.862Z,95234.66
2023-04-05T17:11:17.658Z,95231.06
2023-04-05T17:13:46.886Z,95236.13
2023-04-05T17:16:16.297Z,95231.06
2023-04-05T17:18:44.032Z,95237.94
2023-04-05T17:21:12.407Z,95239.72
2023-04-05T17:23:40.310Z,95238.72
2023-04-05T17:26:08.061Z,95241.25
2023-04-05T17:28:35.779Z,95247.38
2023-04-05T17:31:04.005Z,95235.16
2023-04-05T17:33:33.225Z,95237.78
2023-04-05T17:36:01.743Z,95248.09
2023-04-05T17:38:29.635Z,95241.09
2023-04-05T17:40:59.291Z,95239.47
2023-04-05T17:43:27.322Z,95241.09
2023-04-05T17:45:55.498Z,95244.53
2023-04-05T17:48:23.266Z,95242.75
2023-04-05T17:50:52.315Z,95259.22
2023-04-05T17:53:20.350Z,95248.78
2023-04-05T17:55:48.144Z,95257.44
2023-04-05T17:58:15.894Z,95250.44
2023-04-05T18:00:43.744Z,95258.25
2023-04-05T18:03:13.173Z,95272.13
2023-04-05T18:05:41.322Z,95260.88
2023-04-05T18:08:10.538Z,95273.75
2023-04-05T18:10:38.290Z,95271.16
2023-04-05T18:13:06.466Z,95273.75
2023-04-05T18:15:34.179Z,95271.31
2023-04-05T18:18:02.159Z,95269.53
2023-04-05T18:20:29.962Z,95268.69
2023-04-05T18:22:59.897Z,95272.13
2023-04-05T18:25:29.542Z,95284.34
2023-04-05T18:27:57.257Z,95279.13
2023-04-05T18:30:24.998Z,95287.78
2023-04-05T18:32:52.744Z,95285.97
2023-04-05T18:35:20.913Z,95280.75
2023-04-05T18:37:48.583Z,95305.06
2023-04-05T18:40:16.644Z,95297.25
2023-04-05T18:42:46.347Z,95299.84
2023-04-05T18:45:14.094Z,95300.84
2023-04-05T18:47:41.824Z,95301.63
2023-04-05T18:50:10.644Z,95303.44
2023-04-05T18:52:38.603Z,95316.34
2023-04-05T18:55:07.025Z,95308.66
2023-04-05T18:57:35.095Z,95314.69
2023-04-05T19:00:05.717Z,95324.31
2023-04-05T19:02:33.504Z,95325.00
2023-04-05T19:05:01.714Z,95318.13
2023-04-05T19:07:29.458Z,95322.38
2023-04-05T19:09:57.177Z,95328.56
2023-04-05T19:12:24.917Z,95320.72
2023-04-05T19:14:52.648Z,95332.84
2023-04-05T19:17:21.709Z,95321.56
2023-04-05T19:19:49.641Z,95319.78
2023-04-05T19:22:17.367Z,95329.25
2023-04-05T19:24:45.093Z,95325.69
2023-04-05T19:27:12.877Z,95328.44
2023-04-05T19:29:40.592Z,95328.28
2023-04-05T19:32:09.031Z,95328.28
2023-04-05T19:34:39.325Z,95330.06
2023-04-05T19:37:07.035Z,95332.53
2023-04-05T19:39:36.953Z,95335.13
2023-04-05T19:42:05.975Z,95340.34
2023-04-05T19:44:46.877Z,95333.34
2023-04-05T19:47:15.285Z,95338.56
2023-04-05T19:49:44.384Z,95340.22
2023-04-05T19:52:14.450Z,95333.34
2023-04-05T19:54:44.124Z,95337.75
2023-04-05T19:57:17.775Z,95340.22
2023-04-05T19:59:46.065Z,95342.00
2023-04-05T20:02:28.326Z,95338.56
2023-04-05T20:04:57.544Z,95341.19
2023-04-05T20:07:25.339Z,95339.41
2023-04-05T20:09:54.544Z,95341.19
2023-04-05T20:12:23.333Z,95337.63
2023-04-05T20:14:52.039Z,95332.53
2023-04-05T20:17:21.435Z,95335.00
2023-04-05T20:19:59.164Z,95337.63
2023-04-05T20:22:28.967Z,95337.63
2023-04-05T20:24:56.668Z,95337.63
2023-04-05T20:27:24.453Z,95335.13
2023-04-05T20:29:52.417Z,95336.94
2023-04-05T20:32:20.423Z,95335.13
2023-04-05T20:34:48.153Z,95331.72
2023-04-05T20:37:17.251Z,95340.34
2023-04-05T20:39:44.969Z,95338.56
2023-04-05T20:42:12.752Z,95333.34
2023-04-05T20:44:41.046Z,95332.53
2023-04-05T20:47:08.809Z,95325.69
2023-04-05T20:49:36.496Z,95322.09
2023-04-05T20:52:07.716Z,95330.75
2023-04-05T20:54:36.988Z,95328.13
2023-04-05T20:57:04.945Z,95330.75
2023-04-05T20:59:32.710Z,95337.75
2023-04-05T21:02:00.660Z,95326.34
2023-04-05T21:04:30.067Z,95326.34
2023-04-05T21:06:58.147Z,95335.81
2023-04-05T21:09:25.902Z,95331.56
2023-04-05T21:11:54.989Z,95335.69
2023-04-05T21:14:23.187Z,95329.78
2023-04-05T21:16:50.896Z,95330.59
2023-04-05T21:19:18.648Z,95329.78
2023-04-05T21:21:46.328Z,95330.59
2023-04-05T21:24:14.098Z,95334.03
2023-04-05T21:26:41.853Z,95328.81
2023-04-05T21:29:11.086Z,95331.41
2023-04-05T21:31:38.804Z,95330.59
2023-04-05T21:34:06.501Z,95332.25
2023-04-05T21:36:34.321Z,95331.41
2023-04-05T21:39:02.030Z,95337.63
2023-04-05T21:41:29.733Z,95336.78
2023-04-05T21:43:57.592Z,95330.59
2023-04-05T21:46:27.068Z,95333.19
2023-04-05T21:48:54.821Z,95332.41
2023-04-05T21:51:22.877Z,95335.00
2023-04-05T21:53:50.632Z,95333.34
2023-04-05T21:56:18.962Z,95333.34
2023-04-05T21:58:46.730Z,95333.34
2023-04-05T22:01:14.795Z,95334.19
2023-04-05T22:03:43.935Z,95335.13
2023-04-05T22:06:11.817Z,95335.97
2023-04-05T22:08:39.531Z,95331.56
2023-04-05T22:11:07.362Z,95329.91
2023-04-05T22:13:35.120Z,95339.56
2023-04-05T22:16:02.918Z,95332.53
2023-04-05T22:18:30.690Z,95332.53
2023-04-05T22:20:59.780Z,95336.94
2023-04-05T22:23:27.486Z,95335.28
2023-04-05T22:25:55.445Z,95333.50
2023-04-05T22:28:23.415Z,95335.28
2023-04-05T22:30:51.320Z,95332.69
2023-04-05T22:33:19.067Z,95332.69
2023-04-05T22:35:46.825Z,95331.84
2023-04-05T22:38:15.977Z,95328.28
2023-04-05T22:40:45.288Z,95327.47
2023-04-05T22:43:13.078Z,95332.69
2023-04-05T22:45:40.841Z,95334.47
2023-04-05T22:48:08.740Z,95327.47
2023-04-05T22:50:36.493Z,95329.13
2023-04-05T22:53:04.277Z,95327.31
2023-04-05T22:55:33.370Z,95329.91
2023-04-05T22:58:01.442Z,95322.25
2023-04-05T23:00:29.162Z,95318.69
2023-04-05T23:02:57.018Z,95326.50
2023-04-05T23:05:24.977Z,95324.84
2023-04-05T23:07:52.814Z,95322.09
2023-04-05T23:10:20.926Z,95328.28
2023-04-05T23:12:50.055Z,95323.06
2023-04-05T23:15:17.837Z,95322.09
2023-04-05T23:17:45.573Z,95321.28
2023-04-05T23:20:13.905Z,95317.03
2023-04-05T23:22:41.640Z,95323.06
2023-04-05T23:25:10.374Z,95326.63
2023-04-05T23:27:38.123Z,95316.19
2023-04-05T23:30:08.694Z,95320.59
2023-04-05T23:32:36.456Z,95317.16
2023-04-05T23:35:04.358Z,95314.56
2023-04-05T23:37:32.437Z,95319.78
2023-04-05T23:40:00.186Z,95319.78
2023-04-05T23:42:27.956Z,95314.56
2023-04-05T23:44:55.728Z,95317.16
2023-04-05T23:47:24.856Z,95323.22
2023-04-05T23:49:52.663Z,95310.28
2023-04-05T23:52:20.696Z,95318.94
2023-04-05T23:54:48.397Z,95317.16
2023-04-05T23:57:16.273Z,95315.38
2023-04-05T23:59:44.075Z,95310.97
